EW5462 Weather Reports


Display with metric or nautical units.
time (UTC)temp
F
wind
direction
speed
MPH
gust
MPH
rain 1hr
in
rain 24hr
in
rain mn
in
humidity
%
barometer
mb
20201130234211 73 337 7.0 11.0 0.00 0.00 0.00 19 1018.1
20201130233714 73 341 7.0 9.0 0.00 0.00 0.00 19 1018.0
20201130233204 73 344 5.0 8.0 0.00 0.00 0.00 20 1018.0
20201130232705 74 327 3.0 4.0 0.00 0.00 0.00 20 1017.9
20201130232204 74 340 7.0 9.0 0.00 0.00 0.00 19 1017.9
20201130231707 74 336 5.0 7.0 0.00 0.00 0.00 19 1017.9
20201130231204 74 347 8.0 9.0 0.00 0.00 0.00 18 1018.0
20201130230905 74 343 4.0 5.0 0.00 0.00 0.00 16 1017.9
20201130230402 74 352 4.0 7.0 0.00 0.00 0.00 16 1017.9
20201130225907 74 347 5.0 7.0 0.00 0.00 0.00 16 1018.0
20201130225403 74 345 5.0 7.0 0.00 0.00 0.00 16 1018.0
20201130224903 74 347 6.0 8.0 0.00 0.00 0.00 18 1018.0
20201130224402 75 353 4.0 9.0 0.00 0.00 0.00 17 1018.0
20201130223905 74 333 7.0 8.0 0.00 0.00 0.00 17 1018.1
20201130223404 74 353 7.0 10.0 0.00 0.00 0.00 16 1018.1
20201130222904 75 355 4.0 6.0 0.00 0.00 0.00 17 1018.2
20201130222403 74 355 6.0 8.0 0.00 0.00 0.00 17 1018.2
20201130221905 74 347 7.0 9.0 0.00 0.00 0.00 18 1018.3
20201130221404 74 340 7.0 10.0 0.00 0.00 0.00 18 1018.3
20201130220905 74 351 5.0 8.0 0.00 0.00 0.00 16 1018.3
20201130220408 74 0 4.0 8.0 0.00 0.00 0.00 16 1018.4
20201130215905 74 2 6.0 8.0 0.00 0.00 0.00 17 1018.5
20201130215404 74 355 8.0 10.0 0.00 0.00 0.00 16 1018.6
20201130214903 74 351 6.0 9.0 0.00 0.00 0.00 15 1018.6
20201130214704 74 5 5.0 10.0 0.00 0.00 0.00 15 1018.6
20201130214202 74 2 6.0 9.0 0.00 0.00 0.00 15 1018.7
20201130213703 74 357 5.0 8.0 0.00 0.00 0.00 16 1018.8
20201130213201 74 353 7.0 10.0 0.00 0.00 0.00 15 1018.9
20201130212702 74 28 3.0 6.0 0.00 0.00 0.00 16 1018.9
20201130212202 74 12 5.0 7.0 0.00 0.00 0.00 16 1018.9
20201130211704 74 0 6.0 9.0 0.00 0.00 0.00 16 1019.0
20201130211205 73 24 5.0 6.0 0.00 0.00 0.00 17 1019.1
20201130210704 74 26 6.0 9.0 0.00 0.00 0.00 16 1019.2
20201130210204 74 10 5.0 7.0 0.00 0.00 0.00 16 1019.3
20201130205714 74 37 7.0 10.0 0.00 0.00 0.00 17 1019.3
20201130205203 73 19 6.0 10.0 0.00 0.00 0.00 16 1019.3
20201130204703 73 28 6.0 8.0 0.00 0.00 0.00 16 1019.4
20201130204205 73 0 5.0 9.0 0.00 0.00 0.00 16 1019.4
20201130203703 73 22 7.0 9.0 0.00 0.00 0.00 16 1019.5
20201130203205 73 42 6.0 9.0 0.00 0.00 0.00 17 1019.5
20201130202702 73 27 4.0 6.0 0.00 0.00 0.00 16 1019.7
20201130202203 72 26 9.0 12.0 0.00 0.00 0.00 16 1019.8
20201130201706 73 13 8.0 12.0 0.00 0.00 0.00 16 1019.8
20201130201202 72 24 6.0 9.0 0.00 0.00 0.00 16 1019.9
20201130200702 72 27 10.0 13.0 0.00 0.00 0.00 16 1020.0
20201130200203 72 9 7.0 10.0 0.00 0.00 0.00 16 1020.0
20201130195704 71 38 7.0 10.0 0.00 0.00 0.00 17 1020.1
20201130195206 72 2 7.0 11.0 0.00 0.00 0.00 17 1020.3
20201130194703 71 32 6.0 10.0 0.00 0.00 0.00 17 1020.4
20201130194202 71 16 5.0 10.0 0.00 0.00 0.00 16 1020.4
20201130193702 71 10 5.0 10.0 0.00 0.00 0.00 17 1020.5
20201130193201 71 36 6.0 8.0 0.00 0.00 0.00 16 1020.6
20201130192702 70 35 6.0 9.0 0.00 0.00 0.00 17 1020.7
20201130192206 70 14 7.0 9.0 0.00 0.00 0.00 17 1020.9
20201130191703 70 15 5.0 8.0 0.00 0.00 0.00 17 1021.0
20201130191205 69 22 9.0 11.0 0.00 0.00 0.00 17 1021.1
20201130190703 69 23 8.0 10.0 0.00 0.00 0.00 17 1021.1
20201130190214 69 26 8.0 12.0 0.00 0.00 0.00 17 1021.1
20201130185702 69 29 8.0 11.0 0.00 0.00 0.00 17 1021.1
20201130185202 69 36 6.0 10.0 0.00 0.00 0.00 18 1021.2
20201130185019 68 37 7.0 11.0 0.00 0.00 0.00 18 1021.2
20201130184506 68 32 7.0 10.0 0.00 0.00 0.00 19 1021.3
20201130184010 68 38 6.0 8.0 0.00 0.00 0.00 20 1021.3
20201130183508 67 24 9.0 11.0 0.00 0.00 0.00 19 1021.5
20201130183019 67 22 9.0 12.0 0.00 0.00 0.00 18 1021.6
20201130182525 67 8 8.0 10.0 0.00 0.00 0.00 20 1021.7
20201130182015 67 13 7.0 9.0 0.00 0.00 0.00 19 1021.7
20201130181511 66 21 7.0 9.0 0.00 0.00 0.00 20 1021.7
20201130181021 66 26 8.0 10.0 0.00 0.00 0.00 20 1021.8
20201130180516 66 21 10.0 11.0 0.00 0.00 0.00 20 1021.8
20201130180019 65 27 7.0 10.0 0.00 0.00 0.00 21 1021.8
20201130175511 65 10 7.0 8.0 0.00 0.00 0.00 21 1021.9
20201130175403 65 26 5.0 7.0 0.00 0.00 0.00 22 1021.9
20201130174903 64 359 5.0 8.0 0.00 0.00 0.00 22 1021.9
20201130174403 64 12 7.0 10.0 0.00 0.00 0.00 21 1022.0
20201130173907 64 17 7.0 10.0 0.00 0.00 0.00 21 1022.0
20201130173403 63 4 7.0 9.0 0.00 0.00 0.00 22 1021.9
20201130172904 62 3 8.0 11.0 0.00 0.00 0.00 23 1021.9
20201130172402 62 7 7.0 11.0 0.00 0.00 0.00 23 1021.9
20201130171908 62 25 6.0 8.0 0.00 0.00 0.00 24 1021.8
20201130171404 61 23 8.0 11.0 0.00 0.00 0.00 26 1021.8
20201130170907 61 21 8.0 11.0 0.00 0.00 0.00 24 1021.8
20201130170403 60 24 9.0 12.0 0.00 0.00 0.00 24 1021.8
20201130165905 60 22 8.0 9.0 0.00 0.00 0.00 26 1021.8
20201130165404 59 21 10.0 11.0 0.00 0.00 0.00 25 1021.8
20201130164903 59 22 7.0 8.0 0.00 0.00 0.00 27 1021.8
20201130164703 59 28 6.0 8.0 0.00 0.00 0.00 27 1021.7
20201130164206 59 33 6.0 8.0 0.00 0.00 0.00 26 1021.9
20201130163702 59 33 6.0 8.0 0.00 0.00 0.00 28 1021.8
20201130163203 58 40 6.0 9.0 0.00 0.00 0.00 28 1021.8
20201130162703 58 39 5.0 7.0 0.00 0.00 0.00 27 1021.8
20201130162203 57 25 7.0 10.0 0.00 0.00 0.00 26 1021.8
20201130161703 57 22 8.0 10.0 0.00 0.00 0.00 26 1021.8
20201130161204 57 22 8.0 10.0 0.00 0.00 0.00 26 1021.8
20201130160708 56 24 8.0 10.0 0.00 0.00 0.00 25 1021.7
20201130160203 56 20 7.0 9.0 0.00 0.00 0.00 26 1021.7
20201130155703 55 24 8.0 10.0 0.00 0.00 0.00 27 1021.7
20201130155202 55 31 6.0 9.0 0.00 0.00 0.00 28 1021.6
20201130154702 55 27 7.0 9.0 0.00 0.00 0.00 26 1021.5
20201130154203 55 17 6.0 9.0 0.00 0.00 0.00 25 1021.6
20201130153701 54 21 9.0 10.0 0.00 0.00 0.00 27 1021.6
20201130153202 54 23 8.0 11.0 0.00 0.00 0.00 28 1021.4
20201130152702 53 25 6.0 10.0 0.00 0.00 0.00 29 1021.3
20201130152207 53 34 6.0 9.0 0.00 0.00 0.00 29 1021.2
20201130151704 53 34 6.0 8.0 0.00 0.00 0.00 28 1021.1
20201130151202 53 30 6.0 8.0 0.00 0.00 0.00 29 1021.2
20201130150713 53 32 6.0 9.0 0.00 0.00 0.00 29 1021.1
20201130150204 52 35 6.0 9.0 0.00 0.00 0.00 29 1021.0
20201130145702 52 32 6.0 9.0 0.00 0.00 0.00 29 1021.1
20201130145205 51 30 6.0 8.0 0.00 0.00 0.00 30 1021.1
20201130144704 51 35 5.0 7.0 0.00 0.00 0.00 30 1021.1
20201130144203 51 31 5.0 7.0 0.00 0.00 0.00 29 1021.1
20201130143703 51 26 5.0 7.0 0.00 0.00 0.00 29 1021.1
20201130143205 50 31 4.0 6.0 0.00 0.00 0.00 31 1021.0
20201130142702 50 41 5.0 6.0 0.00 0.00 0.00 31 1021.0
20201130142202 50 35 4.0 6.0 0.00 0.00 0.00 33 1020.9
20201130141702 50 41 5.0 6.0 0.00 0.00 0.00 33 1020.9
20201130141202 50 42 5.0 7.0 0.00 0.00 0.00 31 1020.8
20201130140703 51 40 6.0 7.0 0.00 0.00 0.00 31 1020.8
20201130140302 51 38 6.0 7.0 0.00 0.00 0.00 30 1020.7
20201130135802 51 43 5.0 6.0 0.00 0.00 0.00 30 1020.7
20201130135306 52 40 5.0 7.0 0.00 0.00 0.00 29 1020.7
20201130134801 52 29 5.0 7.0 0.00 0.00 0.00 29 1020.7
20201130134304 53 25 7.0 9.0 0.00 0.00 0.00 28 1020.8
20201130133802 53 24 8.0 8.0 0.00 0.00 0.00 28 1020.7
20201130133704 53 24 8.0 10.0 0.00 0.00 0.00 28 1020.7
20201130133203 53 26 7.0 10.0 0.00 0.00 0.00 28 1020.5
20201130132704 53 29 6.0 8.0 0.00 0.00 0.00 29 1020.4
20201130132205 53 32 6.0 9.0 0.00 0.00 0.00 29 1020.3
20201130131703 53 31 6.0 9.0 0.00 0.00 0.00 29 1020.2
20201130131203 53 25 7.0 10.0 0.00 0.00 0.00 28 1020.2
20201130130703 54 24 7.0 10.0 0.00 0.00 0.00 27 1020.1
20201130130203 54 24 7.0 10.0 0.00 0.00 0.00 26 1020.0
20201130125713 53 12 4.0 5.0 0.00 0.00 0.00 27 1019.9
20201130125203 53 341 3.0 4.0 0.00 0.00 0.00 28 1019.8
20201130124702 54 356 4.0 6.0 0.00 0.00 0.00 26 1019.7
20201130124202 54 8 4.0 6.0 0.00 0.00 0.00 26 1019.6
20201130123708 54 18 8.0 9.0 0.00 0.00 0.00 26 1019.6
20201130123511 54 23 9.0 11.0 0.00 0.00 0.00 26 1019.6
20201130123010 53 26 8.0 10.0 0.00 0.00 0.00 28 1019.6
20201130122512 54 24 8.0 10.0 0.00 0.00 0.00 28 1019.6
20201130122012 53 32 6.0 9.0 0.00 0.00 0.00 28 1019.6
20201130121510 54 31 6.0 9.0 0.00 0.00 0.00 28 1019.6
20201130121009 53 26 8.0 10.0 0.00 0.00 0.00 29 1019.6
20201130120517 53 33 6.0 9.0 0.00 0.00 0.00 29 1019.6
20201130120009 53 32 8.0 11.0 0.00 0.00 0.00 30 1019.6
20201130115521 51 36 7.0 9.0 0.00 0.00 0.00 33 1019.6
20201130115015 50 39 7.0 10.0 0.00 0.00 0.00 33 1019.5
20201130114516 50 40 6.0 7.0 0.00 0.00 0.00 33 1019.5
20201130114203 51 26 5.0 7.0 0.00 0.00 0.00 31 1019.4
20201130113702 52 16 4.0 6.0 0.00 0.00 0.00 28 1019.4
20201130113203 52 22 5.0 7.0 0.00 0.00 0.00 27 1019.3
20201130112703 52 15 4.0 5.0 0.00 0.00 0.00 28 1019.4
20201130112201 52 24 5.0 6.0 0.00 0.00 0.00 28 1019.4
20201130111702 52 25 5.0 6.0 0.00 0.00 0.00 29 1019.4
20201130111203 51 30 4.0 6.0 0.00 0.00 0.00 30 1019.3
20201130110702 51 26 5.0 5.0 0.00 0.00 0.00 30 1019.2
20201130110208 50 21 3.0 4.0 0.00 0.00 0.00 33 1019.3
20201130105705 49 43 4.0 5.0 0.00 0.00 0.00 34 1019.3
20201130105202 49 50 4.0 6.0 0.00 0.00 0.00 33 1019.3
20201130104703 48 49 4.0 5.0 0.00 0.00 0.00 35 1019.3
20201130104202 46 44 2.0 2.0 0.00 0.00 0.00 37 1019.4
20201130103702 46 40 1.0 1.0 0.00 0.00 0.00 38 1019.4
20201130103204 47 18 1.0 1.0 0.00 0.00 0.00 35 1019.4
20201130102702 48 53 3.0 3.0 0.00 0.00 0.00 34 1019.4
20201130102203 46 54 4.0 5.0 0.00 0.00 0.00 37 1019.4
20201130101705 47 60 4.0 5.0 0.00 0.00 0.00 36 1019.4
20201130101203 45 69 5.0 6.0 0.00 0.00 0.00 38 1019.4
20201130100703 45 74 3.0 3.0 0.00 0.00 0.00 39 1019.4
20201130100204 49 57 5.0 5.0 0.00 0.00 0.00 32 1019.4
20201130095703 48 58 5.0 5.0 0.00 0.00 0.00 35 1019.5
20201130095202 46 61 4.0 5.0 0.00 0.00 0.00 37 1019.6
20201130094704 46 46 3.0 4.0 0.00 0.00 0.00 37 1019.7
20201130094207 45 50 3.0 3.0 0.00 0.00 0.00 39 1019.8
20201130093703 45 50 4.0 4.0 0.00 0.00 0.00 39 1019.9
20201130093203 45 50 4.0 4.0 0.00 0.00 0.00 38 1019.9
20201130092703 45 49 4.0 5.0 0.00 0.00 0.00 39 1019.9
20201130092203 44 43 4.0 4.0 0.00 0.00 0.00 42 1019.9
20201130091702 45 41 4.0 4.0 0.00 0.00 0.00 40 1020.0
20201130091207 46 39 3.0 4.0 0.00 0.00 0.00 40 1020.1
20201130090703 50 0 2.0 3.0 0.00 0.00 0.00 34 1020.1
20201130090202 50 349 3.0 3.0 0.00 0.00 0.00 34 1020.1
20201130085703 50 337 5.0 5.0 0.00 0.00 0.00 35 1020.2
20201130085202 47 317 3.0 4.0 0.00 0.00 0.00 40 1020.2
20201130084704 48 284 4.0 4.0 0.00 0.00 0.00 40 1020.2
20201130084202 47 282 4.0 4.0 0.00 0.00 0.00 41 1020.2
20201130083703 47 282 4.0 4.0 0.00 0.00 0.00 42 1020.3
20201130083202 47 283 3.0 3.0 0.00 0.00 0.00 41 1020.3
20201130082702 46 285 3.0 4.0 0.00 0.00 0.00 43 1020.3
20201130082205 46 295 3.0 3.0 0.00 0.00 0.00 45 1020.2
20201130081702 45 296 2.0 2.0 0.00 0.00 0.00 43 1020.1
20201130081206 45 296 0.0 1.0 0.00 0.00 0.00 44 1020.2
20201130080705 46 0.0 0.0 0.00 0.00 0.00 42 1020.1
20201130080213 48 312 2.0 3.0 0.00 0.00 0.00 38 1020.1
20201130075703 48 296 2.0 2.0 0.00 0.00 0.00 39 1020.0
20201130075205 46 295 2.0 2.0 0.00 0.00 0.00 42 1020.1
20201130074702 46 295 2.0 2.0 0.00 0.00 0.00 42 1020.0
20201130074204 46 296 1.0 1.0 0.00 0.00 0.00 40 1019.9
20201130073701 47 253 0.0 1.0 0.00 0.00 0.00 38 1019.9
20201130073202 48 314 2.0 3.0 0.00 0.00 0.00 37 1019.9
20201130072702 49 287 3.0 3.0 0.00 0.00 0.00 36 1019.9
20201130072202 49 286 4.0 4.0 0.00 0.00 0.00 35 1019.8
20201130071709 48 287 3.0 3.0 0.00 0.00 0.00 37 1019.8
20201130071202 48 288 3.0 3.0 0.00 0.00 0.00 36 1019.8
20201130070903 49 288 3.0 3.0 0.00 0.00 0.00 35 1019.7
20201130070402 49 288 3.0 3.0 0.00 0.00 0.00 35 1019.7
20201130070202 49 284 2.0 2.0 0.00 0.00 0.00 35 1019.7
20201130065704 49 289 2.0 2.0 0.00 0.00 0.00 36 1019.7
20201130065202 49 338 2.0 2.0 0.00 0.00 0.00 35 1019.6
20201130064704 50 8 2.0 2.0 0.00 0.00 0.00 34 1019.6
20201130064214 50 8 1.0 1.0 0.00 0.00 0.00 33 1019.5
20201130063705 50 8 2.0 2.0 0.00 0.00 0.00 34 1019.6
20201130063204 50 8 1.0 1.0 0.00 0.00 0.00 34 1019.6
20201130062703 50 8 1.0 1.0 0.00 0.00 0.00 33 1019.5
20201130062205 50 9 2.0 2.0 0.00 0.00 0.00 35 1019.6
20201130061703 52 8 2.0 3.0 0.00 0.00 0.00 30 1019.6
20201130061204 53 357 3.0 3.0 0.00 0.00 0.00 29 1019.5
20201130060703 53 352 3.0 3.0 0.00 0.00 0.00 29 1019.5
20201130060214 52 25 4.0 4.0 0.00 0.00 0.00 31 1019.4
20201130055703 51 41 4.0 4.0 0.00 0.00 0.00 32 1019.5
20201130055206 51 43 4.0 4.0 0.00 0.00 0.00 32 1019.3
20201130054704 50 51 4.0 4.0 0.00 0.00 0.00 34 1019.4
20201130054406 52 36 4.0 4.0 0.00 0.00 0.00 31 1019.4
20201130053904 51 25 3.0 3.0 0.00 0.00 0.00 32 1019.3
20201130053404 51 26 3.0 3.0 0.00 0.00 0.00 32 1019.3
20201130052907 52 7 3.0 3.0 0.00 0.00 0.00 31 1019.3
20201130052407 53 6 2.0 2.0 0.00 0.00 0.00 29 1019.4
20201130051902 53 344 2.0 2.0 0.00 0.00 0.00 29 1019.4
20201130051403 53 342 1.0 1.0 0.00 0.00 0.00 30 1019.4
20201130050902 53 345 2.0 2.0 0.00 0.00 0.00 29 1019.3
20201130050408 52 336 2.0 2.0 0.00 0.00 0.00 33 1019.2
20201130045903 51 336 1.0 1.0 0.00 0.00 0.00 32 1019.2
20201130045403 51 336 1.0 1.0 0.00 0.00 0.00 33 1019.2
20201130044903 50 336 0.0 1.0 0.00 0.00 0.00 35 1019.2
20201130044402 50 336 1.0 2.0 0.00 0.00 0.00 36 1019.2
20201130043905 51 338 1.0 1.0 0.00 0.00 0.00 35 1019.1
20201130043404 51 357 2.0 2.0 0.00 0.00 0.00 34 1019.1
20201130042904 50 360 1.0 1.0 0.00 0.00 0.00 39 1019.1
20201130042404 51 0.0 0.0 0.00 0.00 0.00 36 1019.1
20201130041904 52 0.0 0.0 0.00 0.00 0.00 36 1019.1
20201130041402 53 1 1.0 1.0 0.00 0.00 0.00 29 1019.1
20201130040904 54 355 2.0 2.0 0.00 0.00 0.00 28 1019.1
20201130040405 56 344 2.0 2.0 0.00 0.00 0.00 26 1019.1
20201130035903 56 338 2.0 2.0 0.00 0.00 0.00 26 1019.0
20201130035404 57 335 3.0 3.0 0.00 0.00 0.00 25 1019.0
20201130034904 56 331 3.0 3.0 0.00 0.00 0.00 26 1019.0
20201130034404 56 325 3.0 3.0 0.00 0.00 0.00 26 1019.0
20201130033904 57 326 3.0 3.0 0.00 0.00 0.00 25 1019.0
20201130033402 56 337 2.0 2.0 0.00 0.00 0.00 27 1019.0
20201130032904 55 328 2.0 2.0 0.00 0.00 0.00 29 1019.0
20201130032403 54 296 1.0 1.0 0.00 0.00 0.00 30 1019.1
20201130031902 54 286 2.0 2.0 0.00 0.00 0.00 31 1019.2
20201130031407 54 327 2.0 2.0 0.00 0.00 0.00 30 1019.2
20201130030902 55 342 1.0 1.0 0.00 0.00 0.00 28 1019.2
20201130030405 56 342 0.0 0.0 0.00 0.00 0.00 27 1019.2
20201130025903 58 342 1.0 1.0 0.00 0.00 0.00 25 1019.1
20201130025404 59 342 1.0 1.0 0.00 0.00 0.00 24 1019.1
20201130024905 59 342 2.0 3.0 0.00 0.00 0.00 24 1019.1
20201130024404 60 336 3.0 3.0 0.00 0.00 0.00 24 1019.1
20201130023902 59 336 1.0 2.0 0.00 0.00 0.00 24 1019.0
20201130023403 60 346 1.0 2.0 0.00 0.00 0.00 23 1018.9
20201130022904 61 350 2.0 2.0 0.00 0.00 0.00 23 1018.9
20201130022402 60 352 2.0 2.0 0.00 0.00 0.00 24 1018.9
20201130021903 59 352 2.0 2.0 0.00 0.00 0.00 25 1018.8
20201130021406 60 338 1.0 1.0 0.00 0.00 0.00 24 1018.8
20201130020903 60 337 2.0 2.0 0.00 0.00 0.00 24 1018.7
20201130020404 61 339 1.0 1.0 0.00 0.00 0.00 23 1018.8
20201130015907 62 341 2.0 2.0 0.00 0.00 0.00 22 1018.7
20201130015408 62 351 1.0 2.0 0.00 0.00 0.00 22 1018.7
20201130014903 63 8 2.0 4.0 0.00 0.00 0.00 21 1018.6
20201130014408 63 9 2.0 3.0 0.00 0.00 0.00 21 1018.7
20201130013905 63 355 2.0 3.0 0.00 0.00 0.00 21 1018.7
20201130013403 64 351 3.0 4.0 0.00 0.00 0.00 21 1018.8
20201130012903 64 345 3.0 4.0 0.00 0.00 0.00 21 1018.8
20201130012403 64 349 4.0 5.0 0.00 0.00 0.00 21 1018.8
20201130011903 65 345 4.0 6.0 0.00 0.00 0.00 20 1018.8
20201130011403 65 346 4.0 6.0 0.00 0.00 0.00 20 1018.8
20201130010907 65 343 4.0 5.0 0.00 0.00 0.00 21 1018.8
20201130010402 65 345 3.0 4.0 0.00 0.00 0.00 21 1018.8
20201130005903 65 344 4.0 5.0 0.00 0.00 0.00 21 1018.8
20201130005404 66 346 3.0 6.0 0.00 0.00 0.00 20 1018.7
20201130004902 66 345 4.0 6.0 0.00 0.00 0.00 20 1018.6
20201130004404 66 347 5.0 8.0 0.00 0.00 0.00 20 1018.6
20201130003902 66 339 4.0 5.0 0.00 0.00 0.00 20 1018.6
20201130003403 67 346 5.0 7.0 0.00 0.00 0.00 20 1018.7
20201130002905 67 349 3.0 5.0 0.00 0.00 0.00 19 1018.7
20201130002403 68 336 4.0 6.0 0.00 0.00 0.00 19 1018.7
20201130001903 68 347 6.0 8.0 0.00 0.00 0.00 19 1018.6
20201130001404 68 355 6.0 9.0 0.00 0.00 0.00 19 1018.5
20201130000916 69 348 5.0 8.0 0.00 0.00 0.00 19 1018.5
20201130000402 69 346 6.0 7.0 0.00 0.00 0.00 18 1018.5
20201129235905 69 345 7.0 11.0 0.00 0.00 0.00 18 1018.5
20201129235402 69 349 5.0 8.0 0.00 0.00 0.00 18 1018.5
20201129234902 70 332 5.0 7.0 0.00 0.00 0.00 17 1018.5
20201129234403 70 339 7.0 10.0 0.00 0.00 0.00 17 1018.5